createdAt,value
2022-11-14T00:00:59.071Z,101300.88
2022-11-14T00:03:25.684Z,101301.94
2022-11-14T00:05:52.255Z,101295.75
2022-11-14T00:08:22.625Z,101294.56
2022-11-14T00:10:51.193Z,101297.88
2022-11-14T00:13:19.359Z,101294.56
2022-11-14T00:15:49.280Z,101296.22
2022-11-14T00:18:16.305Z,101295.44
2022-11-14T00:20:42.917Z,101291.97
2022-11-14T00:23:09.482Z,101284.97
2022-11-14T00:25:36.158Z,101286.75
2022-11-14T00:28:02.764Z,101280.22
2022-11-14T00:30:29.366Z,101286.22
2022-11-14T00:32:56.051Z,101293.13
2022-11-14T00:35:22.654Z,101287.03
2022-11-14T00:37:49.246Z,101290.72
2022-11-14T00:40:16.219Z,101286.22
2022-11-14T00:42:42.824Z,101289.00
2022-11-14T00:45:09.929Z,101287.47
2022-11-14T00:47:37.081Z,101290.88
2022-11-14T00:50:04.568Z,101293.47
2022-11-14T00:52:31.208Z,101289.00
2022-11-14T00:54:57.856Z,101296.84
2022-11-14T00:57:24.454Z,101294.44
2022-11-14T00:59:51.030Z,101297.97
2022-11-14T01:02:17.610Z,101287.47
2022-11-14T01:04:44.264Z,101283.91
2022-11-14T01:07:10.856Z,101286.25
2022-11-14T01:09:37.508Z,101277.59
2022-11-14T01:12:04.340Z,101283.50
2022-11-14T01:14:30.924Z,101282.06
2022-11-14T01:16:57.576Z,101284.63
2022-11-14T01:19:24.221Z,101284.72
2022-11-14T01:21:50.814Z,101277.72
2022-11-14T01:24:17.412Z,101282.06
2022-11-14T01:26:43.991Z,101282.78
2022-11-14T01:29:10.591Z,101272.38
2022-11-14T01:31:37.231Z,101263.88
2022-11-14T01:34:03.860Z,101260.31
2022-11-14T01:36:30.434Z,101266.44
2022-11-14T01:38:57.005Z,101265.84
2022-11-14T01:41:23.660Z,101264.09
2022-11-14T01:43:50.291Z,101259.63
2022-11-14T01:46:22.218Z,101263.25
2022-11-14T01:49:05.631Z,101264.13
2022-11-14T01:51:42.942Z,101255.47
2022-11-14T01:54:19.084Z,101261.44
2022-11-14T01:56:58.838Z,101249.31
2022-11-14T01:59:31.042Z,101245.75
2022-11-14T02:02:02.937Z,101252.78
2022-11-14T02:04:38.107Z,101245.88
2022-11-14T02:07:06.566Z,101238.94
2022-11-14T02:09:36.954Z,101239.78
2022-11-14T02:12:07.509Z,101234.53
2022-11-14T02:14:37.925Z,101238.94
2022-11-14T02:17:28.345Z,101245.94
2022-11-14T02:19:54.908Z,101236.09
2022-11-14T02:22:21.593Z,101237.06
2022-11-14T02:24:48.189Z,101239.63
2022-11-14T02:27:15.619Z,101237.75
2022-11-14T02:29:42.602Z,101236.81
2022-11-14T02:32:10.879Z,101239.38
2022-11-14T02:34:38.615Z,101229.78
2022-11-14T02:37:06.091Z,101233.22
2022-11-14T02:39:32.677Z,101235.78
2022-11-14T02:41:59.611Z,101247.16
2022-11-14T02:44:26.253Z,101243.47
2022-11-14T02:46:52.893Z,101241.66
2022-11-14T02:49:19.485Z,101238.94
2022-11-14T02:51:46.073Z,101233.88
2022-11-14T02:54:12.651Z,101229.75
2022-11-14T02:56:39.226Z,101225.19
2022-11-14T02:59:05.812Z,101224.53
2022-11-14T03:01:32.468Z,101225.19
2022-11-14T03:03:59.140Z,101223.34
2022-11-14T03:06:25.742Z,101227.38
2022-11-14T03:08:52.507Z,101226.47
2022-11-14T03:11:19.069Z,101227.53
2022-11-14T03:13:45.645Z,101227.47
2022-11-14T03:16:13.639Z,101235.38
2022-11-14T03:18:40.284Z,101231.69
2022-11-14T03:21:08.783Z,101224.97
2022-11-14T03:23:35.584Z,101222.13
2022-11-14T03:26:04.204Z,101225.81
2022-11-14T03:28:30.979Z,101232.84
2022-11-14T03:30:58.003Z,101234.78
2022-11-14T03:33:25.280Z,101227.63
2022-11-14T03:35:52.941Z,101231.03
2022-11-14T03:38:20.534Z,101226.34
2022-11-14T03:40:47.144Z,101223.88
2022-11-14T03:43:13.745Z,101218.03
2022-11-14T03:45:40.339Z,101220.03
2022-11-14T03:48:07.479Z,101216.59
2022-11-14T03:50:34.130Z,101215.03
2022-11-14T03:53:00.949Z,101216.06
2022-11-14T03:55:28.165Z,101216.81
2022-11-14T03:57:54.768Z,101220.34
2022-11-14T04:00:21.628Z,101218.66
2022-11-14T04:02:48.214Z,101206.34
2022-11-14T04:05:14.896Z,101205.44
2022-11-14T04:07:41.466Z,101207.31
2022-11-14T04:10:08.480Z,101208.38
2022-11-14T04:12:35.105Z,101214.25
2022-11-14T04:15:01.682Z,101206.13
2022-11-14T04:17:28.332Z,101203.81
2022-11-14T04:19:54.973Z,101205.81
2022-11-14T04:22:21.624Z,101207.31
2022-11-14T04:24:48.205Z,101194.31
2022-11-14T04:27:14.812Z,101190.22
2022-11-14T04:29:41.390Z,101191.88
2022-11-14T04:32:08.007Z,101193.59
2022-11-14T04:34:34.642Z,101185.19
2022-11-14T04:37:01.271Z,101200.28
2022-11-14T04:39:27.859Z,101194.94
2022-11-14T04:41:54.661Z,101197.38
2022-11-14T04:44:21.237Z,101195.78
2022-11-14T04:46:47.826Z,101184.13
2022-11-14T04:49:14.488Z,101177.22
2022-11-14T04:51:41.082Z,101186.09
2022-11-14T04:54:07.804Z,101185.06
2022-11-14T04:56:34.486Z,101180.66
2022-11-14T04:59:01.089Z,101177.28
2022-11-14T05:01:27.796Z,101182.25
2022-11-14T05:03:54.477Z,101182.28
2022-11-14T05:06:21.104Z,101176.88
2022-11-14T05:08:47.692Z,101174.78
2022-11-14T05:11:19.602Z,101172.97
2022-11-14T05:13:47.081Z,101166.94
2022-11-14T05:16:13.998Z,101168.13
2022-11-14T05:18:45.823Z,101171.53
2022-11-14T05:21:15.184Z,101168.84
2022-11-14T05:23:41.787Z,101167.16
2022-11-14T05:26:14.633Z,101171.78
2022-11-14T05:28:41.300Z,101174.25
2022-11-14T05:31:10.597Z,101175.72
2022-11-14T05:33:37.192Z,101174.13
2022-11-14T05:36:05.535Z,101174.19
2022-11-14T05:38:32.583Z,101171.47
2022-11-14T05:40:59.500Z,101171.47
2022-11-14T05:43:28.802Z,101171.94
2022-11-14T05:46:02.817Z,101177.13
2022-11-14T05:48:30.552Z,101177.47
2022-11-14T05:51:02.447Z,101186.19
2022-11-14T05:53:30.610Z,101185.59
2022-11-14T05:56:01.729Z,101179.63
2022-11-14T05:58:28.933Z,101179.59
2022-11-14T06:01:14.328Z,101182.53
2022-11-14T06:03:43.851Z,101175.13
2022-11-14T06:06:13.306Z,101177.66
2022-11-14T06:08:40.495Z,101182.03
2022-11-14T06:11:13.591Z,101175.84
2022-11-14T06:13:41.575Z,101170.50
2022-11-14T06:16:12.216Z,101182.81
2022-11-14T06:18:39.535Z,101177.78
2022-11-14T06:21:12.811Z,101185.22
2022-11-14T06:23:39.450Z,101192.59
2022-11-14T06:26:19.098Z,101191.59
2022-11-14T06:28:45.685Z,101187.59
2022-11-14T06:31:12.291Z,101194.66
2022-11-14T06:33:38.888Z,101193.38
2022-11-14T06:36:07.474Z,101195.75
2022-11-14T06:38:36.199Z,101203.56
2022-11-14T06:41:10.784Z,101204.59
2022-11-14T06:43:40.027Z,101207.63
2022-11-14T06:46:08.494Z,101201.19
2022-11-14T06:48:35.756Z,101200.97
2022-11-14T06:51:03.452Z,101198.09
2022-11-14T06:53:31.854Z,101205.94
2022-11-14T06:56:01.987Z,101205.84
2022-11-14T06:58:34.834Z,101197.63
2022-11-14T07:01:06.198Z,101192.47
2022-11-14T07:03:33.706Z,101201.09
2022-11-14T07:06:01.458Z,101196.00
2022-11-14T07:08:28.413Z,101197.16
2022-11-14T07:10:55.021Z,101196.88
2022-11-14T07:13:21.625Z,101205.19
2022-11-14T07:15:55.266Z,101204.28
2022-11-14T07:18:21.835Z,101202.38
2022-11-14T07:20:48.653Z,101204.44
2022-11-14T07:23:18.639Z,101212.56
2022-11-14T07:25:49.197Z,101209.88
2022-11-14T07:28:15.798Z,101211.47
2022-11-14T07:30:42.378Z,101208.22
2022-11-14T07:33:09.020Z,101205.28
2022-11-14T07:35:35.627Z,101199.28
2022-11-14T07:38:03.771Z,101208.31
2022-11-14T07:40:30.409Z,101205.50
2022-11-14T07:43:00.783Z,101205.75
2022-11-14T07:45:28.770Z,101205.97
2022-11-14T07:48:00.784Z,101214.91
2022-11-14T07:50:28.450Z,101208.06
2022-11-14T07:52:56.399Z,101201.59
2022-11-14T07:55:23.555Z,101205.22
2022-11-14T07:57:53.878Z,101209.25
2022-11-14T08:00:20.831Z,101200.66
2022-11-14T08:02:48.002Z,101198.34
2022-11-14T08:05:14.597Z,101192.75
2022-11-14T08:07:41.286Z,101197.50
2022-11-14T08:10:08.477Z,101189.81
2022-11-14T08:12:35.062Z,101186.09
2022-11-14T08:15:01.723Z,101187.00
2022-11-14T08:17:28.310Z,101184.94
2022-11-14T08:19:54.925Z,101187.88
2022-11-14T08:22:21.572Z,101178.22
2022-11-14T08:24:48.163Z,101185.91
2022-11-14T08:27:14.752Z,101178.25
2022-11-14T08:29:41.336Z,101180.56
2022-11-14T08:32:08.049Z,101175.41
2022-11-14T08:34:34.761Z,101174.53
2022-11-14T08:37:01.754Z,101168.59
2022-11-14T08:39:28.748Z,101179.16
2022-11-14T08:41:55.413Z,101178.50
2022-11-14T08:44:22.028Z,101177.84
2022-11-14T08:46:50.481Z,101178.94
2022-11-14T08:49:17.261Z,101169.81
2022-11-14T08:51:43.879Z,101165.06
2022-11-14T08:54:10.617Z,101166.84
2022-11-14T08:56:37.220Z,101168.94
2022-11-14T08:59:04.775Z,101170.72
2022-11-14T09:01:31.369Z,101169.69
2022-11-14T09:04:00.012Z,101165.22
2022-11-14T09:06:26.885Z,101167.63
2022-11-14T09:08:53.538Z,101173.53
2022-11-14T09:11:20.587Z,101171.72
2022-11-14T09:13:47.189Z,101167.56
2022-11-14T09:16:13.783Z,101165.06
2022-11-14T09:18:40.389Z,101171.38
2022-11-14T09:21:08.764Z,101161.81
2022-11-14T09:23:36.080Z,101154.88
2022-11-14T09:26:09.886Z,101160.13
2022-11-14T09:28:37.438Z,101160.97
2022-11-14T09:31:10.146Z,101159.31
2022-11-14T09:33:36.823Z,101157.75
2022-11-14T09:36:08.617Z,101153.34
2022-11-14T09:38:38.401Z,101152.44
2022-11-14T09:41:31.689Z,101151.69
2022-11-14T09:44:24.593Z,101146.47
2022-11-14T09:47:00.136Z,101145.63
2022-11-14T09:49:39.880Z,101145.69
2022-11-14T09:52:15.829Z,101146.63
2022-11-14T09:54:51.662Z,101140.59
2022-11-14T09:57:20.461Z,101139.66
2022-11-14T09:59:47.435Z,101137.09
2022-11-14T10:02:25.902Z,101133.59
2022-11-14T10:05:11.215Z,101125.75
2022-11-14T10:07:54.235Z,101117.88
2022-11-14T10:10:38.664Z,101115.25
2022-11-14T10:13:41.019Z,101109.91
2022-11-14T10:16:18.604Z,101102.88
2022-11-14T10:18:51.558Z,101101.72
2022-11-14T10:21:50.754Z,101097.16
2022-11-14T10:24:23.137Z,101091.91
2022-11-14T10:26:52.717Z,101085.59
2022-11-14T10:29:28.276Z,101082.13
2022-11-14T10:32:21.641Z,101079.50
2022-11-14T10:35:14.269Z,101077.47
2022-11-14T10:37:49.595Z,101071.25
2022-11-14T10:40:28.076Z,101075.59
2022-11-14T10:43:25.539Z,101070.22
2022-11-14T10:46:25.541Z,101061.16
2022-11-14T10:48:56.290Z,101059.19
2022-11-14T10:51:34.118Z,101058.28
2022-11-14T10:54:09.822Z,101049.41
2022-11-14T10:56:53.872Z,101050.19
2022-11-14T10:59:21.441Z,101052.22
2022-11-14T11:01:51.063Z,101041.13
2022-11-14T11:04:29.777Z,101038.16
2022-11-14T11:07:17.910Z,101035.84
2022-11-14T11:09:59.771Z,101032.41
2022-11-14T11:12:41.065Z,101035.53
2022-11-14T11:15:23.586Z,101032.59
2022-11-14T11:17:58.652Z,101032.38
2022-11-14T11:20:27.851Z,101032.00
2022-11-14T11:23:07.386Z,101026.09
2022-11-14T11:25:34.800Z,101026.22
2022-11-14T11:28:11.813Z,101017.94
2022-11-14T11:30:38.937Z,101014.72
2022-11-14T11:33:21.697Z,101021.28
2022-11-14T11:35:50.507Z,101007.44
2022-11-14T11:38:17.714Z,101012.56
2022-11-14T11:40:48.328Z,101018.50
2022-11-14T11:46:40.780Z,101010.34
2022-11-14T11:49:16.240Z,101014.78
2022-11-14T11:51:46.071Z,101010.59
2022-11-14T11:54:19.858Z,101005.34
2022-11-14T11:56:52.053Z,101006.50
2022-11-14T11:59:35.587Z,101014.19
2022-11-14T12:02:19.132Z,101009.50
2022-11-14T12:04:45.913Z,100997.41
2022-11-14T12:07:17.808Z,100992.41
2022-11-14T12:12:31.040Z,100982.63
2022-11-14T12:14:57.550Z,100984.94
2022-11-14T12:17:50.142Z,100978.78
2022-11-14T12:20:47.242Z,100977.03
2022-11-14T12:23:32.903Z,100967.56
2022-11-14T12:26:05.966Z,100966.47
2022-11-14T12:28:50.615Z,100967.75
2022-11-14T12:31:18.358Z,100960.66
2022-11-14T12:34:14.094Z,100960.88
2022-11-14T12:36:44.562Z,100953.47
2022-11-14T12:39:30.959Z,100946.84
2022-11-14T12:42:06.807Z,100946.44
2022-11-14T12:44:38.970Z,100938.28
2022-11-14T12:47:05.654Z,100939.94
2022-11-14T12:49:47.557Z,100931.47
2022-11-14T12:52:51.656Z,100931.69
2022-11-14T12:55:24.337Z,100932.13
2022-11-14T12:57:58.148Z,100921.06
2022-11-14T13:00:25.366Z,100922.53
2022-11-14T13:03:13.878Z,100916.19
2022-11-14T13:06:01.275Z,100920.19
2022-11-14T13:08:40.695Z,100923.44
2022-11-14T13:11:31.960Z,100920.75
2022-11-14T13:14:02.227Z,100926.38
2022-11-14T13:16:32.649Z,100920.09
2022-11-14T13:19:03.590Z,100919.69
2022-11-14T13:21:31.120Z,100919.00
2022-11-14T13:23:58.032Z,100912.69
2022-11-14T13:26:24.553Z,100915.28
2022-11-14T13:28:52.816Z,100909.69
2022-11-14T13:31:26.291Z,100914.88
2022-11-14T13:33:58.351Z,100906.09
2022-11-14T13:36:27.790Z,100900.81
2022-11-14T13:39:09.637Z,100904.16
2022-11-14T13:42:13.751Z,100898.63
2022-11-14T13:45:16.840Z,100897.03
2022-11-14T13:47:46.081Z,100886.94
2022-11-14T13:50:16.990Z,100891.22
2022-11-14T13:52:46.835Z,100888.50
2022-11-14T13:55:28.222Z,100884.31
2022-11-14T13:57:57.715Z,100883.13
2022-11-14T14:00:24.327Z,100883.44
2022-11-14T14:02:59.688Z,100889.88
2022-11-14T14:06:05.112Z,100888.16
2022-11-14T14:08:57.365Z,100882.63
2022-11-14T14:11:38.927Z,100876.00
2022-11-14T14:14:51.973Z,100879.00
2022-11-14T14:17:52.914Z,100874.06
2022-11-14T14:20:40.267Z,100879.72
2022-11-14T14:23:25.475Z,100871.03
2022-11-14T14:26:07.605Z,100866.16
2022-11-14T14:29:29.657Z,100873.81
2022-11-14T14:32:06.801Z,100875.19
2022-11-14T14:34:33.398Z,100874.03
2022-11-14T14:37:00.105Z,100873.75
2022-11-14T14:39:28.645Z,100880.59
2022-11-14T14:41:57.890Z,100871.81
2022-11-14T14:44:28.795Z,100869.00
2022-11-14T14:46:55.646Z,100871.56
2022-11-14T14:49:27.501Z,100871.75
2022-11-14T14:51:58.345Z,100865.16
2022-11-14T14:54:27.785Z,100862.56
2022-11-14T14:56:57.138Z,100864.63
2022-11-14T14:59:25.245Z,100851.78
2022-11-14T15:01:51.966Z,100858.53
2022-11-14T15:04:22.126Z,100855.25
2022-11-14T15:06:50.025Z,100853.94
2022-11-14T15:09:22.797Z,100848.34
2022-11-14T15:11:52.201Z,100857.06
2022-11-14T15:14:22.873Z,100853.06
2022-11-14T15:16:50.986Z,100848.41
2022-11-14T15:19:23.971Z,100846.06
2022-11-14T15:22:03.902Z,100838.34
2022-11-14T15:24:30.758Z,100840.88
2022-11-14T15:26:57.857Z,100832.16
2022-11-14T15:29:27.811Z,100836.63
2022-11-14T15:32:04.767Z,100833.38
2022-11-14T15:34:33.846Z,100836.06
2022-11-14T15:37:15.446Z,100837.06
2022-11-14T15:39:43.301Z,100844.13
2022-11-14T15:42:27.708Z,100841.63
2022-11-14T15:44:55.636Z,100841.59
2022-11-14T15:47:23.847Z,100841.56
2022-11-14T15:50:06.640Z,100841.59
2022-11-14T15:52:52.318Z,100842.56
2022-11-14T15:55:21.191Z,100844.41
2022-11-14T15:57:55.849Z,100844.41
2022-11-14T16:00:33.563Z,100836.59
2022-11-14T16:03:00.300Z,100837.50
2022-11-14T16:05:29.455Z,100839.34
2022-11-14T16:07:56.873Z,100841.22
2022-11-14T16:10:26.079Z,100843.00
2022-11-14T16:12:53.047Z,100839.44
2022-11-14T16:15:20.636Z,100837.75
2022-11-14T16:17:49.628Z,100847.34
2022-11-14T16:20:25.824Z,100838.69
2022-11-14T16:22:53.658Z,100843.03
2022-11-14T16:25:24.771Z,100846.69
2022-11-14T16:27:51.910Z,100844.09
2022-11-14T16:30:20.376Z,100839.72
2022-11-14T16:32:48.876Z,100844.09
2022-11-14T16:35:18.707Z,100848.50
2022-11-14T16:37:45.820Z,100848.50
2022-11-14T16:40:20.662Z,100848.59
2022-11-14T16:42:47.422Z,100851.31
2022-11-14T16:45:14.265Z,100860.03
2022-11-14T16:47:40.928Z,100853.03
2022-11-14T16:50:08.461Z,100855.63
2022-11-14T16:52:35.101Z,100853.00
2022-11-14T16:55:01.705Z,100855.78
2022-11-14T16:57:28.273Z,100850.50
2022-11-14T16:59:54.936Z,100853.97
2022-11-14T17:02:21.665Z,100850.47
2022-11-14T17:04:48.329Z,100852.25
2022-11-14T17:07:17.745Z,100853.94
2022-11-14T17:09:48.291Z,100859.91
2022-11-14T17:12:15.019Z,100860.88
2022-11-14T17:14:41.606Z,100851.47
2022-11-14T17:17:08.179Z,100848.72
2022-11-14T17:19:34.817Z,100849.66
2022-11-14T17:22:01.388Z,100850.63
2022-11-14T17:24:31.408Z,100848.72
2022-11-14T17:26:58.466Z,100848.75
2022-11-14T17:29:25.053Z,100839.25
2022-11-14T17:31:51.723Z,100833.81
2022-11-14T17:34:18.310Z,100836.41
2022-11-14T17:36:44.930Z,100840.03
2022-11-14T17:39:11.545Z,100834.91
2022-11-14T17:41:38.142Z,100827.97
2022-11-14T17:44:04.915Z,100842.91
2022-11-14T17:46:31.579Z,100835.91
2022-11-14T17:48:58.777Z,100837.69
2022-11-14T17:51:25.378Z,100834.09
2022-11-14T17:53:52.049Z,100829.66
2022-11-14T17:56:21.530Z,100830.53
2022-11-14T17:58:50.543Z,100828.84
2022-11-14T18:01:20.538Z,100829.72
2022-11-14T18:03:47.920Z,100833.16
2022-11-14T18:06:20.002Z,100822.81
2022-11-14T18:08:47.374Z,100819.34
2022-11-14T18:11:16.237Z,100814.03
2022-11-14T18:13:42.912Z,100813.19
2022-11-14T18:16:15.874Z,100825.22
2022-11-14T18:18:43.047Z,100820.03
2022-11-14T18:21:13.579Z,100813.91
2022-11-14T18:23:40.252Z,100824.47
2022-11-14T18:26:27.645Z,100821.84
2022-11-14T18:28:56.025Z,100816.72
2022-11-14T18:31:23.607Z,100820.22
2022-11-14T18:33:50.496Z,100812.41
2022-11-14T18:36:17.984Z,100806.31
2022-11-14T18:38:45.271Z,100807.13
2022-11-14T18:41:17.666Z,100808.78
2022-11-14T18:43:45.331Z,100814.03
2022-11-14T18:46:16.773Z,100816.72
2022-11-14T18:48:46.335Z,100820.31
2022-11-14T18:51:16.470Z,100821.13
2022-11-14T18:53:43.164Z,100822.88
2022-11-14T18:56:12.468Z,100815.03
2022-11-14T18:58:40.213Z,100816.75
2022-11-14T19:01:15.973Z,100820.19
2022-11-14T19:03:42.834Z,100818.50
2022-11-14T19:06:11.521Z,100815.88
2022-11-14T19:08:38.357Z,100808.06
2022-11-14T19:11:07.451Z,100805.41
2022-11-14T19:13:34.826Z,100801.09
2022-11-14T19:16:05.967Z,100800.03
2022-11-14T19:18:32.580Z,100801.03
2022-11-14T19:21:01.677Z,100791.41
2022-11-14T19:23:29.370Z,100793.19
2022-11-14T19:25:59.529Z,100796.69
2022-11-14T19:28:26.729Z,100794.16
2022-11-14T19:30:53.363Z,100788.91
2022-11-14T19:33:19.938Z,100796.72
2022-11-14T19:35:46.535Z,100800.25
2022-11-14T19:38:13.621Z,100801.13
2022-11-14T19:40:40.237Z,100797.63
2022-11-14T19:43:06.818Z,100802.88
2022-11-14T19:45:34.190Z,100806.34
2022-11-14T19:48:00.894Z,100800.25
2022-11-14T19:50:27.502Z,100797.63
2022-11-14T19:52:54.079Z,100793.28
2022-11-14T19:55:23.506Z,100793.25
2022-11-14T19:57:50.125Z,100800.19
2022-11-14T20:00:17.057Z,100793.28
2022-11-14T20:02:46.762Z,100794.13
2022-11-14T20:05:13.351Z,100799.38
2022-11-14T20:07:39.940Z,100795.03
2022-11-14T20:10:08.098Z,100789.78
2022-11-14T20:12:34.721Z,100780.19
2022-11-14T20:15:01.897Z,100779.31
2022-11-14T20:17:28.517Z,100774.97
2022-11-14T20:19:55.144Z,100772.31
2022-11-14T20:22:21.756Z,100777.56
2022-11-14T20:24:50.454Z,100775.75
2022-11-14T20:27:17.122Z,100770.53
2022-11-14T20:29:43.775Z,100768.81
2022-11-14T20:32:15.471Z,100761.03
2022-11-14T20:34:42.943Z,100761.00
2022-11-14T20:37:11.491Z,100768.00
2022-11-14T20:39:38.692Z,100773.19
2022-11-14T20:42:05.366Z,100764.50
2022-11-14T20:44:32.007Z,100771.41
2022-11-14T20:46:58.591Z,100770.59
2022-11-14T20:49:25.199Z,100770.59
2022-11-14T20:51:51.803Z,100764.50
2022-11-14T20:54:18.440Z,100765.31
2022-11-14T20:56:45.135Z,100767.00
2022-11-14T20:59:11.718Z,100763.56
2022-11-14T21:01:43.418Z,100763.59
2022-11-14T21:04:10.862Z,100755.69
2022-11-14T21:06:37.466Z,100760.00
2022-11-14T21:09:04.087Z,100756.53
2022-11-14T21:11:30.655Z,100754.00
2022-11-14T21:13:57.889Z,100747.03
2022-11-14T21:16:31.637Z,100750.53
2022-11-14T21:18:59.127Z,100740.13
2022-11-14T21:21:26.869Z,100737.44
2022-11-14T21:23:54.596Z,100737.41
2022-11-14T21:26:31.458Z,100729.59
2022-11-14T21:29:00.558Z,100721.75
2022-11-14T21:31:33.311Z,100724.38
2022-11-14T21:34:02.190Z,100726.94
2022-11-14T21:36:46.779Z,100730.47
2022-11-14T21:39:15.861Z,100728.69
2022-11-14T21:41:43.835Z,100719.16
2022-11-14T21:44:12.608Z,100723.44
2022-11-14T21:46:39.199Z,100717.31
2022-11-14T21:49:05.771Z,100707.72
2022-11-14T21:51:32.346Z,100705.00
2022-11-14T21:53:59.018Z,100716.28
2022-11-14T21:56:28.417Z,100709.44
2022-11-14T21:58:55.433Z,100704.09
2022-11-14T22:01:22.446Z,100707.53
2022-11-14T22:03:49.074Z,100699.84
2022-11-14T22:06:15.686Z,100715.56
2022-11-14T22:08:42.374Z,100706.00
2022-11-14T22:11:09.408Z,100706.66
2022-11-14T22:13:36.016Z,100709.91
2022-11-14T22:16:06.387Z,100708.16
2022-11-14T22:18:32.978Z,100698.53
2022-11-14T22:20:59.684Z,100700.25
2022-11-14T22:23:27.913Z,100694.91
2022-11-14T22:25:59.041Z,100701.84
2022-11-14T22:28:26.474Z,100696.72
2022-11-14T22:31:08.253Z,100690.72
2022-11-14T22:33:36.734Z,100680.97
2022-11-14T22:36:11.696Z,100673.13
2022-11-14T22:38:39.434Z,100672.19
2022-11-14T22:41:07.754Z,100671.41
2022-11-14T22:43:35.136Z,100673.94
2022-11-14T22:46:01.898Z,100674.81
2022-11-14T22:48:31.215Z,100674.91
2022-11-14T22:51:05.700Z,100667.22
2022-11-14T22:53:34.470Z,100672.19
2022-11-14T22:56:01.890Z,100674.03
2022-11-14T22:58:33.476Z,100666.63
2022-11-14T23:01:00.858Z,100655.44
2022-11-14T23:03:28.027Z,100661.59
2022-11-14T23:05:54.733Z,100658.91
2022-11-14T23:08:21.409Z,100659.94
2022-11-14T23:10:48.286Z,100666.25
2022-11-14T23:13:15.184Z,100660.22
2022-11-14T23:15:47.431Z,100653.03
2022-11-14T23:18:14.034Z,100653.25
2022-11-14T23:20:40.609Z,100656.69
2022-11-14T23:23:07.301Z,100659.28
2022-11-14T23:25:35.935Z,100654.00
2022-11-14T23:28:02.533Z,100653.88
2022-11-14T23:30:29.113Z,100652.31
2022-11-14T23:32:55.699Z,100647.22
2022-11-14T23:35:22.314Z,100648.88
2022-11-14T23:37:48.911Z,100634.72
2022-11-14T23:40:15.779Z,100639.16
2022-11-14T23:42:42.393Z,100637.59
2022-11-14T23:45:09.123Z,100640.44
2022-11-14T23:47:35.799Z,100644.69
2022-11-14T23:50:02.402Z,100646.28
2022-11-14T23:52:29.008Z,100633.34
2022-11-14T23:54:55.672Z,100627.16
2022-11-14T23:57:22.263Z,100623.66
2022-11-14T23:59:48.853Z,100633.16
